createdAt,value
2022-10-18T00:01:06.534Z,24.43
2022-10-18T00:06:10.875Z,24.57
2022-10-18T00:11:15.642Z,24.21
2022-10-18T00:16:19.784Z,24.42
2022-10-18T00:21:24.834Z,24.42
2022-10-18T00:26:32.256Z,24.30
2022-10-18T00:31:37.834Z,24.47
2022-10-18T00:36:41.785Z,24.45
2022-10-18T00:41:47.057Z,24.33
2022-10-18T00:46:50.529Z,24.34
2022-10-18T00:51:58.150Z,24.34
2022-10-18T00:57:03.606Z,24.32
2022-10-18T01:02:08.349Z,24.34
2022-10-18T01:07:27.889Z,24.33
2022-10-18T01:12:48.748Z,24.25
2022-10-18T01:18:00.627Z,24.22
2022-10-18T01:23:07.292Z,24.16
2022-10-18T01:28:26.910Z,24.16
2022-10-18T01:33:36.995Z,24.10
2022-10-18T01:38:40.818Z,24.05
2022-10-18T01:43:45.393Z,24.07
2022-10-18T01:48:50.383Z,23.99
2022-10-18T01:53:54.197Z,23.85
2022-10-18T01:59:06.662Z,23.89
2022-10-18T02:04:20.953Z,23.84
2022-10-18T02:09:31.231Z,23.72
2022-10-18T02:14:34.924Z,23.76
2022-10-18T02:19:43.051Z,23.76
2022-10-18T02:24:50.992Z,23.60
2022-10-18T02:29:54.753Z,23.50
2022-10-18T02:35:01.453Z,23.48
2022-10-18T02:40:06.268Z,23.45
2022-10-18T02:45:09.905Z,23.41
2022-10-18T02:50:15.184Z,23.30
2022-10-18T02:55:18.603Z,23.22
2022-10-18T03:00:21.987Z,23.10
2022-10-18T03:05:26.864Z,23.14
2022-10-18T03:10:30.164Z,23.15
2022-10-18T03:15:33.468Z,23.10
2022-10-18T03:20:38.148Z,23.10
2022-10-18T03:25:44.220Z,23.05
2022-10-18T03:30:49.690Z,23.03
2022-10-18T03:35:54.451Z,22.98
2022-10-18T03:40:57.846Z,22.91
2022-10-18T03:46:01.489Z,22.83
2022-10-18T03:51:06.526Z,23.00
2022-10-18T03:56:09.895Z,22.94
2022-10-18T04:01:13.499Z,22.89
2022-10-18T04:06:18.238Z,22.91
2022-10-18T04:11:21.537Z,22.87
2022-10-18T04:16:24.945Z,22.80
2022-10-18T04:21:29.741Z,22.79
2022-10-18T04:26:33.094Z,22.71
2022-10-18T04:31:36.409Z,22.71
2022-10-18T04:36:41.289Z,22.69
2022-10-18T04:41:44.792Z,22.74
2022-10-18T04:46:48.266Z,22.70
2022-10-18T04:51:53.094Z,22.63
2022-10-18T04:56:56.624Z,22.61
2022-10-18T05:02:00.122Z,22.57
2022-10-18T05:07:06.503Z,22.64
2022-10-18T05:12:09.918Z,22.67
2022-10-18T05:17:13.337Z,22.65
2022-10-18T05:22:18.147Z,22.67
2022-10-18T05:27:21.537Z,22.64
2022-10-18T05:32:24.973Z,22.64
2022-10-18T05:37:29.850Z,22.60
2022-10-18T05:42:33.519Z,22.58
2022-10-18T05:47:37.044Z,22.64
2022-10-18T05:52:41.826Z,22.59
2022-10-18T05:57:45.227Z,22.59
2022-10-18T06:02:49.128Z,22.60
2022-10-18T06:07:53.983Z,22.70
2022-10-18T06:12:57.349Z,22.68
2022-10-18T06:18:00.704Z,22.77
2022-10-18T06:23:05.543Z,22.81
2022-10-18T06:28:11.461Z,22.89
2022-10-18T06:33:15.756Z,22.97
2022-10-18T06:38:20.628Z,23.01
2022-10-18T06:43:24.718Z,23.01
2022-10-18T06:48:28.184Z,23.06
2022-10-18T06:53:34.186Z,23.09
2022-10-18T06:58:38.047Z,23.16
2022-10-18T07:03:41.450Z,23.14
2022-10-18T07:08:47.283Z,23.08
2022-10-18T07:13:51.102Z,23.18
2022-10-18T07:18:54.520Z,23.28
2022-10-18T07:23:59.346Z,23.33
2022-10-18T07:29:06.374Z,23.37
2022-10-18T07:34:13.031Z,23.46
2022-10-18T07:39:18.013Z,23.51
2022-10-18T07:44:21.438Z,23.61
2022-10-18T07:49:25.098Z,23.52
2022-10-18T07:54:30.292Z,23.18
2022-10-18T07:59:33.770Z,23.70
2022-10-18T08:04:37.193Z,23.83
2022-10-18T08:09:42.038Z,23.99
2022-10-18T08:14:45.463Z,23.71
2022-10-18T08:19:58.538Z,23.96
2022-10-18T08:25:13.968Z,23.71
2022-10-18T08:30:17.645Z,24.34
2022-10-18T08:35:21.222Z,24.38
2022-10-18T08:40:27.486Z,24.22
2022-10-18T08:45:42.503Z,24.22
2022-10-18T08:50:47.089Z,24.23
2022-10-18T08:55:55.868Z,24.33
2022-10-18T09:01:04.565Z,24.27
2022-10-18T09:06:18.672Z,23.99
2022-10-18T09:11:37.084Z,24.39
2022-10-18T09:16:45.839Z,23.67
2022-10-18T09:21:53.844Z,23.85
2022-10-18T09:27:05.186Z,23.65
2022-10-18T09:32:26.179Z,23.73
2022-10-18T09:37:31.698Z,22.86
2022-10-18T09:42:39.009Z,23.67
2022-10-18T09:47:47.198Z,23.13
2022-10-18T09:52:54.013Z,23.01
2022-10-18T09:58:01.889Z,23.75
2022-10-18T10:03:10.968Z,22.76
2022-10-18T10:08:14.450Z,23.38
2022-10-18T10:13:23.077Z,24.17
2022-10-18T10:18:28.227Z,23.51
2022-10-18T10:23:33.797Z,23.91
2022-10-18T10:28:46.220Z,24.33
2022-10-18T10:33:59.678Z,24.35
2022-10-18T10:39:05.228Z,24.15
2022-10-18T10:44:18.090Z,24.14
2022-10-18T10:54:51.174Z,25.31
2022-10-18T10:59:58.276Z,24.24
2022-10-18T11:05:20.733Z,25.51
2022-10-18T11:10:25.804Z,26.40
2022-10-18T11:15:32.982Z,25.29
2022-10-18T11:20:42.082Z,24.74
2022-10-18T11:25:54.530Z,25.17
2022-10-18T11:31:11.071Z,25.63
2022-10-18T11:36:18.756Z,25.28
2022-10-18T11:41:31.449Z,25.60
2022-10-18T11:46:53.822Z,26.34
2022-10-18T11:52:08.802Z,26.86
2022-10-18T11:57:22.475Z,26.02
2022-10-18T12:02:47.933Z,26.60
2022-10-18T12:07:55.180Z,25.42
2022-10-18T12:13:02.050Z,26.46
2022-10-18T12:18:11.705Z,25.22
2022-10-18T12:23:17.489Z,24.31
2022-10-18T12:28:28.443Z,25.49
2022-10-18T12:33:38.226Z,25.39
2022-10-18T12:38:43.651Z,26.56
2022-10-18T12:43:53.200Z,26.81
2022-10-18T12:49:04.730Z,25.01
2022-10-18T12:54:12.683Z,26.12
2022-10-18T12:59:43.867Z,26.57
2022-10-18T13:04:48.706Z,25.95
2022-10-18T13:10:40.781Z,25.07
2022-10-18T13:15:45.540Z,25.57
2022-10-18T13:20:57.697Z,25.06
2022-10-18T13:26:05.656Z,25.46
2022-10-18T13:31:16.170Z,24.09
2022-10-18T13:36:25.976Z,25.89
2022-10-18T13:41:34.322Z,24.99
2022-10-18T13:47:35.406Z,25.05
2022-10-18T13:52:59.055Z,25.17
2022-10-18T13:58:09.850Z,25.99
2022-10-18T14:03:56.073Z,25.58
2022-10-18T14:09:09.573Z,24.88
2022-10-18T14:14:29.811Z,24.80
2022-10-18T14:19:38.846Z,25.03
2022-10-18T14:24:46.111Z,25.68
2022-10-18T14:29:50.196Z,25.02
2022-10-18T14:34:55.754Z,24.89
2022-10-18T14:40:07.003Z,24.96
2022-10-18T14:45:19.086Z,23.94
2022-10-18T14:50:23.693Z,24.33
2022-10-18T14:55:28.942Z,24.53
2022-10-18T15:00:38.226Z,24.67
2022-10-18T15:05:53.147Z,23.85
2022-10-18T15:10:58.235Z,23.78
2022-10-18T15:16:01.689Z,23.89
2022-10-18T15:21:21.960Z,24.14
